sensor_id;sensor_type;location;lat;lon;timestamp;P1;durP1;ratioP1;P2;durP2;ratioP2
17482;SDS011;8858;52.308;20.994;2022-12-07T00:02:04;14.60;;;12.53;;
17482;SDS011;8858;52.308;20.994;2022-12-07T00:04:32;13.93;;;12.10;;
17482;SDS011;8858;52.308;20.994;2022-12-07T00:07:02;15.43;;;12.13;;
17482;SDS011;8858;52.308;20.994;2022-12-07T00:09:31;14.33;;;12.83;;
17482;SDS011;8858;52.308;20.994;2022-12-07T00:12:00;14.97;;;12.53;;
17482;SDS011;8858;52.308;20.994;2022-12-07T00:14:28;16.80;;;13.13;;
17482;SDS011;8858;52.308;20.994;2022-12-07T00:16:57;14.87;;;12.50;;
17482;SDS011;8858;52.308;20.994;2022-12-07T00:19:27;15.13;;;12.87;;
17482;SDS011;8858;52.308;20.994;2022-12-07T00:21:58;15.27;;;12.87;;
17482;SDS011;8858;52.308;20.994;2022-12-07T00:24:28;13.67;;;12.27;;
17482;SDS011;8858;52.308;20.994;2022-12-07T00:26:57;15.23;;;13.03;;
17482;SDS011;8858;52.308;20.994;2022-12-07T00:29:26;15.83;;;12.93;;
17482;SDS011;8858;52.308;20.994;2022-12-07T00:31:54;16.07;;;13.57;;
17482;SDS011;8858;52.308;20.994;2022-12-07T00:34:26;16.43;;;13.40;;
17482;SDS011;8858;52.308;20.994;2022-12-07T00:36:55;16.40;;;13.50;;
17482;SDS011;8858;52.308;20.994;2022-12-07T00:39:24;16.50;;;13.03;;
17482;SDS011;8858;52.308;20.994;2022-12-07T00:41:54;16.57;;;14.47;;
17482;SDS011;8858;52.308;20.994;2022-12-07T00:44:23;15.23;;;13.20;;
17482;SDS011;8858;52.308;20.994;2022-12-07T00:46:55;18.37;;;14.00;;
17482;SDS011;8858;52.308;20.994;2022-12-07T00:49:24;17.67;;;14.13;;
17482;SDS011;8858;52.308;20.994;2022-12-07T00:51:53;16.33;;;14.20;;
17482;SDS011;8858;52.308;20.994;2022-12-07T00:54:21;19.50;;;15.20;;
17482;SDS011;8858;52.308;20.994;2022-12-07T00:56:50;19.90;;;15.17;;
17482;SDS011;8858;52.308;20.994;2022-12-07T00:59:24;21.80;;;15.73;;
17482;SDS011;8858;52.308;20.994;2022-12-07T01:01:52;20.33;;;16.23;;
17482;SDS011;8858;52.308;20.994;2022-12-07T01:04:21;27.77;;;19.77;;
17482;SDS011;8858;52.308;20.994;2022-12-07T01:06:49;30.93;;;20.77;;
17482;SDS011;8858;52.308;20.994;2022-12-07T01:09:18;32.10;;;22.30;;
17482;SDS011;8858;52.308;20.994;2022-12-07T01:11:49;33.40;;;22.47;;
17482;SDS011;8858;52.308;20.994;2022-12-07T01:14:17;35.60;;;23.53;;
17482;SDS011;8858;52.308;20.994;2022-12-07T01:16:47;35.97;;;23.67;;
17482;SDS011;8858;52.308;20.994;2022-12-07T01:19:15;36.43;;;23.20;;
17482;SDS011;8858;52.308;20.994;2022-12-07T01:21:46;33.97;;;23.07;;
17482;SDS011;8858;52.308;20.994;2022-12-07T01:24:18;37.50;;;24.43;;
17482;SDS011;8858;52.308;20.994;2022-12-07T01:26:48;39.90;;;25.83;;
17482;SDS011;8858;52.308;20.994;2022-12-07T01:29:16;42.77;;;26.97;;
17482;SDS011;8858;52.308;20.994;2022-12-07T01:31:45;39.87;;;26.33;;
17482;SDS011;8858;52.308;20.994;2022-12-07T01:34:17;45.17;;;27.23;;
17482;SDS011;8858;52.308;20.994;2022-12-07T01:36:47;41.37;;;27.03;;
17482;SDS011;8858;52.308;20.994;2022-12-07T01:39:16;39.80;;;26.03;;
17482;SDS011;8858;52.308;20.994;2022-12-07T01:41:45;43.40;;;27.43;;
17482;SDS011;8858;52.308;20.994;2022-12-07T01:44:16;40.83;;;25.83;;
17482;SDS011;8858;52.308;20.994;2022-12-07T01:46:49;37.70;;;25.17;;
17482;SDS011;8858;52.308;20.994;2022-12-07T01:49:23;40.07;;;25.87;;
17482;SDS011;8858;52.308;20.994;2022-12-07T01:51:58;37.23;;;24.73;;
17482;SDS011;8858;52.308;20.994;2022-12-07T01:54:34;35.77;;;24.53;;
17482;SDS011;8858;52.308;20.994;2022-12-07T01:57:04;36.07;;;23.67;;
17482;SDS011;8858;52.308;20.994;2022-12-07T01:59:36;33.03;;;23.23;;
17482;SDS011;8858;52.308;20.994;2022-12-07T02:02:10;33.70;;;21.70;;
17482;SDS011;8858;52.308;20.994;2022-12-07T02:04:46;31.83;;;22.20;;
17482;SDS011;8858;52.308;20.994;2022-12-07T02:07:14;30.80;;;20.60;;
17482;SDS011;8858;52.308;20.994;2022-12-07T02:09:47;30.30;;;20.87;;
17482;SDS011;8858;52.308;20.994;2022-12-07T02:12:15;33.20;;;21.77;;
17482;SDS011;8858;52.308;20.994;2022-12-07T02:14:44;30.67;;;21.33;;
17482;SDS011;8858;52.308;20.994;2022-12-07T02:17:15;27.27;;;18.47;;
17482;SDS011;8858;52.308;20.994;2022-12-07T02:23:00;25.87;;;18.67;;
17482;SDS011;8858;52.308;20.994;2022-12-07T02:25:52;24.27;;;17.90;;
17482;SDS011;8858;52.308;20.994;2022-12-07T02:28:31;24.33;;;15.97;;
17482;SDS011;8858;52.308;20.994;2022-12-07T02:31:06;21.27;;;15.60;;
17482;SDS011;8858;52.308;20.994;2022-12-07T02:33:40;20.60;;;14.77;;
17482;SDS011;8858;52.308;20.994;2022-12-07T02:36:12;16.53;;;14.10;;
17482;SDS011;8858;52.308;20.994;2022-12-07T02:38:47;21.50;;;13.03;;
17482;SDS011;8858;52.308;20.994;2022-12-07T02:41:20;18.27;;;13.57;;
17482;SDS011;8858;52.308;20.994;2022-12-07T02:43:54;18.20;;;12.90;;
17482;SDS011;8858;52.308;20.994;2022-12-07T02:46:30;16.07;;;11.57;;
17482;SDS011;8858;52.308;20.994;2022-12-07T02:49:01;15.93;;;12.33;;
17482;SDS011;8858;52.308;20.994;2022-12-07T02:51:30;16.80;;;12.93;;
17482;SDS011;8858;52.308;20.994;2022-12-07T02:54:00;13.67;;;10.53;;
17482;SDS011;8858;52.308;20.994;2022-12-07T02:56:30;17.27;;;11.87;;
17482;SDS011;8858;52.308;20.994;2022-12-07T02:59:13;15.50;;;11.10;;
17482;SDS011;8858;52.308;20.994;2022-12-07T03:01:57;14.80;;;11.87;;
17482;SDS011;8858;52.308;20.994;2022-12-07T03:04:38;16.87;;;12.10;;
17482;SDS011;8858;52.308;20.994;2022-12-07T03:07:11;15.40;;;11.93;;
17482;SDS011;8858;52.308;20.994;2022-12-07T03:09:55;15.50;;;12.17;;
17482;SDS011;8858;52.308;20.994;2022-12-07T03:12:32;13.47;;;11.03;;
17482;SDS011;8858;52.308;20.994;2022-12-07T03:15:08;15.90;;;10.83;;
17482;SDS011;8858;52.308;20.994;2022-12-07T03:17:43;15.03;;;11.20;;
17482;SDS011;8858;52.308;20.994;2022-12-07T03:20:15;15.67;;;11.40;;
17482;SDS011;8858;52.308;20.994;2022-12-07T03:22:48;14.70;;;10.47;;
17482;SDS011;8858;52.308;20.994;2022-12-07T03:25:19;13.37;;;10.40;;
17482;SDS011;8858;52.308;20.994;2022-12-07T03:27:49;13.63;;;10.10;;
17482;SDS011;8858;52.308;20.994;2022-12-07T03:30:27;11.80;;;9.40;;
17482;SDS011;8858;52.308;20.994;2022-12-07T03:33:04;10.67;;;9.13;;
17482;SDS011;8858;52.308;20.994;2022-12-07T03:35:40;13.00;;;9.67;;
17482;SDS011;8858;52.308;20.994;2022-12-07T03:38:13;11.80;;;9.20;;
17482;SDS011;8858;52.308;20.994;2022-12-07T03:40:47;10.90;;;8.53;;
17482;SDS011;8858;52.308;20.994;2022-12-07T03:43:18;13.07;;;9.80;;
17482;SDS011;8858;52.308;20.994;2022-12-07T03:45:55;11.07;;;9.90;;
17482;SDS011;8858;52.308;20.994;2022-12-07T03:48:34;11.60;;;9.53;;
17482;SDS011;8858;52.308;20.994;2022-12-07T03:51:11;13.07;;;9.80;;
17482;SDS011;8858;52.308;20.994;2022-12-07T03:53:48;12.27;;;9.90;;
17482;SDS011;8858;52.308;20.994;2022-12-07T03:56:22;12.57;;;10.83;;
17482;SDS011;8858;52.308;20.994;2022-12-07T03:58:52;12.53;;;10.53;;
17482;SDS011;8858;52.308;20.994;2022-12-07T04:01:22;12.97;;;10.33;;
17482;SDS011;8858;52.308;20.994;2022-12-07T04:03:52;13.80;;;10.83;;
17482;SDS011;8858;52.308;20.994;2022-12-07T04:06:24;15.17;;;10.77;;
17482;SDS011;8858;52.308;20.994;2022-12-07T04:08:52;12.53;;;9.63;;
17482;SDS011;8858;52.308;20.994;2022-12-07T04:11:21;12.80;;;10.73;;
17482;SDS011;8858;52.308;20.994;2022-12-07T04:13:50;13.73;;;11.23;;
17482;SDS011;8858;52.308;20.994;2022-12-07T04:16:39;12.03;;;10.33;;
17482;SDS011;8858;52.308;20.994;2022-12-07T04:19:13;12.60;;;9.70;;
17482;SDS011;8858;52.308;20.994;2022-12-07T04:21:42;10.80;;;9.67;;
17482;SDS011;8858;52.308;20.994;2022-12-07T04:24:12;10.60;;;9.10;;
17482;SDS011;8858;52.308;20.994;2022-12-07T04:26:41;10.53;;;8.33;;
17482;SDS011;8858;52.308;20.994;2022-12-07T04:29:10;8.97;;;7.80;;
17482;SDS011;8858;52.308;20.994;2022-12-07T04:31:40;10.53;;;8.00;;
17482;SDS011;8858;52.308;20.994;2022-12-07T04:34:09;8.87;;;7.73;;
17482;SDS011;8858;52.308;20.994;2022-12-07T04:36:40;9.30;;;8.17;;
17482;SDS011;8858;52.308;20.994;2022-12-07T04:39:13;8.27;;;7.47;;
17482;SDS011;8858;52.308;20.994;2022-12-07T04:41:46;8.93;;;8.03;;
17482;SDS011;8858;52.308;20.994;2022-12-07T04:44:15;9.60;;;7.93;;
17482;SDS011;8858;52.308;20.994;2022-12-07T04:46:46;10.20;;;8.33;;
17482;SDS011;8858;52.308;20.994;2022-12-07T04:49:16;8.83;;;7.60;;
17482;SDS011;8858;52.308;20.994;2022-12-07T04:51:48;10.57;;;8.20;;
17482;SDS011;8858;52.308;20.994;2022-12-07T04:54:16;9.23;;;7.57;;
17482;SDS011;8858;52.308;20.994;2022-12-07T04:56:45;9.10;;;8.17;;
17482;SDS011;8858;52.308;20.994;2022-12-07T04:59:14;9.27;;;8.27;;
17482;SDS011;8858;52.308;20.994;2022-12-07T05:01:44;9.30;;;8.40;;
17482;SDS011;8858;52.308;20.994;2022-12-07T05:04:12;10.47;;;8.50;;
17482;SDS011;8858;52.308;20.994;2022-12-07T05:06:42;9.07;;;7.70;;
17482;SDS011;8858;52.308;20.994;2022-12-07T05:09:11;8.60;;;7.70;;
17482;SDS011;8858;52.308;20.994;2022-12-07T05:11:41;10.27;;;8.47;;
17482;SDS011;8858;52.308;20.994;2022-12-07T05:14:11;9.90;;;8.50;;
17482;SDS011;8858;52.308;20.994;2022-12-07T05:16:41;10.50;;;8.73;;
17482;SDS011;8858;52.308;20.994;2022-12-07T05:19:10;9.93;;;8.20;;
17482;SDS011;8858;52.308;20.994;2022-12-07T05:21:39;9.00;;;8.10;;
17482;SDS011;8858;52.308;20.994;2022-12-07T05:24:13;9.40;;;8.37;;
17482;SDS011;8858;52.308;20.994;2022-12-07T05:26:43;10.17;;;8.80;;
17482;SDS011;8858;52.308;20.994;2022-12-07T05:29:16;12.27;;;8.90;;
17482;SDS011;8858;52.308;20.994;2022-12-07T05:31:44;9.70;;;8.70;;
17482;SDS011;8858;52.308;20.994;2022-12-07T05:34:13;10.53;;;9.43;;
17482;SDS011;8858;52.308;20.994;2022-12-07T05:36:41;10.20;;;9.20;;
17482;SDS011;8858;52.308;20.994;2022-12-07T05:39:10;9.10;;;8.20;;
17482;SDS011;8858;52.308;20.994;2022-12-07T05:41:43;9.57;;;8.53;;
17482;SDS011;8858;52.308;20.994;2022-12-07T05:44:29;10.20;;;8.70;;
17482;SDS011;8858;52.308;20.994;2022-12-07T05:46:58;9.63;;;8.20;;
17482;SDS011;8858;52.308;20.994;2022-12-07T05:49:26;10.17;;;9.10;;
17482;SDS011;8858;52.308;20.994;2022-12-07T05:51:54;9.93;;;8.87;;
17482;SDS011;8858;52.308;20.994;2022-12-07T05:54:24;10.13;;;8.70;;
17482;SDS011;8858;52.308;20.994;2022-12-07T05:56:54;9.77;;;8.47;;
17482;SDS011;8858;52.308;20.994;2022-12-07T05:59:22;10.63;;;8.77;;
17482;SDS011;8858;52.308;20.994;2022-12-07T06:01:54;9.90;;;8.90;;
17482;SDS011;8858;52.308;20.994;2022-12-07T06:04:28;9.07;;;8.13;;
17482;SDS011;8858;52.308;20.994;2022-12-07T06:07:01;8.73;;;7.83;;
17482;SDS011;8858;52.308;20.994;2022-12-07T06:09:31;9.50;;;8.33;;
17482;SDS011;8858;52.308;20.994;2022-12-07T06:12:01;10.00;;;8.27;;
17482;SDS011;8858;52.308;20.994;2022-12-07T06:14:48;9.23;;;7.60;;
17482;SDS011;8858;52.308;20.994;2022-12-07T06:17:20;10.20;;;8.10;;
17482;SDS011;8858;52.308;20.994;2022-12-07T06:19:48;10.20;;;8.43;;
17482;SDS011;8858;52.308;20.994;2022-12-07T06:22:17;9.07;;;8.17;;
17482;SDS011;8858;52.308;20.994;2022-12-07T06:24:47;8.73;;;7.63;;
17482;SDS011;8858;52.308;20.994;2022-12-07T06:27:15;8.33;;;7.43;;
17482;SDS011;8858;52.308;20.994;2022-12-07T06:29:47;8.63;;;7.73;;
17482;SDS011;8858;52.308;20.994;2022-12-07T06:32:15;8.00;;;7.13;;
17482;SDS011;8858;52.308;20.994;2022-12-07T06:34:44;7.40;;;6.63;;
17482;SDS011;8858;52.308;20.994;2022-12-07T06:37:12;11.53;;;9.90;;
17482;SDS011;8858;52.308;20.994;2022-12-07T06:39:41;11.53;;;9.90;;
17482;SDS011;8858;52.308;20.994;2022-12-07T06:42:13;7.83;;;6.47;;
17482;SDS011;8858;52.308;20.994;2022-12-07T06:44:41;10.50;;;6.20;;
17482;SDS011;8858;52.308;20.994;2022-12-07T06:47:10;7.50;;;6.40;;
17482;SDS011;8858;52.308;20.994;2022-12-07T06:49:59;6.97;;;6.27;;
17482;SDS011;8858;52.308;20.994;2022-12-07T06:52:28;6.47;;;5.70;;
17482;SDS011;8858;52.308;20.994;2022-12-07T06:54:56;6.00;;;5.40;;
17482;SDS011;8858;52.308;20.994;2022-12-07T06:57:26;6.13;;;5.53;;
17482;SDS011;8858;52.308;20.994;2022-12-07T06:59:55;8.63;;;6.03;;
17482;SDS011;8858;52.308;20.994;2022-12-07T07:02:26;7.90;;;6.13;;
17482;SDS011;8858;52.308;20.994;2022-12-07T07:04:56;6.67;;;5.70;;
17482;SDS011;8858;52.308;20.994;2022-12-07T07:07:25;7.10;;;6.40;;
17482;SDS011;8858;52.308;20.994;2022-12-07T07:09:54;8.77;;;6.13;;
17482;SDS011;8858;52.308;20.994;2022-12-07T07:12:22;6.43;;;5.83;;
17482;SDS011;8858;52.308;20.994;2022-12-07T07:14:52;7.30;;;5.97;;
17482;SDS011;8858;52.308;20.994;2022-12-07T07:17:20;7.10;;;6.20;;
17482;SDS011;8858;52.308;20.994;2022-12-07T07:19:49;7.87;;;6.93;;
17482;SDS011;8858;52.308;20.994;2022-12-07T07:22:17;8.87;;;6.57;;
17482;SDS011;8858;52.308;20.994;2022-12-07T07:24:46;6.80;;;6.10;;
17482;SDS011;8858;52.308;20.994;2022-12-07T07:27:15;7.30;;;6.50;;
17482;SDS011;8858;52.308;20.994;2022-12-07T07:29:44;7.10;;;6.30;;
17482;SDS011;8858;52.308;20.994;2022-12-07T07:32:14;8.23;;;7.43;;
17482;SDS011;8858;52.308;20.994;2022-12-07T07:34:43;8.00;;;7.20;;
17482;SDS011;8858;52.308;20.994;2022-12-07T07:37:14;7.97;;;7.17;;
17482;SDS011;8858;52.308;20.994;2022-12-07T07:39:47;8.03;;;7.03;;
17482;SDS011;8858;52.308;20.994;2022-12-07T07:42:16;8.10;;;7.20;;
17482;SDS011;8858;52.308;20.994;2022-12-07T07:44:45;7.80;;;7.00;;
17482;SDS011;8858;52.308;20.994;2022-12-07T07:47:16;9.27;;;7.33;;
17482;SDS011;8858;52.308;20.994;2022-12-07T07:49:45;7.57;;;6.43;;
17482;SDS011;8858;52.308;20.994;2022-12-07T07:52:13;7.70;;;6.90;;
17482;SDS011;8858;52.308;20.994;2022-12-07T07:54:42;7.40;;;6.77;;
17482;SDS011;8858;52.308;20.994;2022-12-07T07:57:11;10.07;;;8.00;;
17482;SDS011;8858;52.308;20.994;2022-12-07T07:59:43;8.33;;;7.43;;
17482;SDS011;8858;52.308;20.994;2022-12-07T08:02:13;10.20;;;7.83;;
17482;SDS011;8858;52.308;20.994;2022-12-07T08:04:47;7.73;;;6.93;;
17482;SDS011;8858;52.308;20.994;2022-12-07T08:07:19;10.87;;;8.23;;
17482;SDS011;8858;52.308;20.994;2022-12-07T08:09:48;10.13;;;8.23;;
17482;SDS011;8858;52.308;20.994;2022-12-07T08:12:16;9.70;;;8.37;;
17482;SDS011;8858;52.308;20.994;2022-12-07T08:14:44;9.93;;;7.90;;
17482;SDS011;8858;52.308;20.994;2022-12-07T08:17:14;10.43;;;8.40;;
17482;SDS011;8858;52.308;20.994;2022-12-07T08:19:47;8.83;;;7.07;;
17482;SDS011;8858;52.308;20.994;2022-12-07T08:22:15;14.00;;;9.13;;
17482;SDS011;8858;52.308;20.994;2022-12-07T08:24:44;10.40;;;8.53;;
17482;SDS011;8858;52.308;20.994;2022-12-07T08:27:12;12.77;;;8.97;;
17482;SDS011;8858;52.308;20.994;2022-12-07T08:29:41;12.23;;;9.83;;
17482;SDS011;8858;52.308;20.994;2022-12-07T08:32:10;13.77;;;10.07;;
17482;SDS011;8858;52.308;20.994;2022-12-07T08:34:38;13.17;;;11.03;;
17482;SDS011;8858;52.308;20.994;2022-12-07T08:37:08;13.30;;;10.70;;
17482;SDS011;8858;52.308;20.994;2022-12-07T08:39:37;16.10;;;11.13;;
17482;SDS011;8858;52.308;20.994;2022-12-07T08:42:09;16.27;;;12.07;;
17482;SDS011;8858;52.308;20.994;2022-12-07T08:44:37;18.40;;;12.80;;
17482;SDS011;8858;52.308;20.994;2022-12-07T08:47:06;22.13;;;13.07;;
17482;SDS011;8858;52.308;20.994;2022-12-07T08:49:38;22.07;;;13.70;;
17482;SDS011;8858;52.308;20.994;2022-12-07T08:52:10;20.57;;;13.10;;
17482;SDS011;8858;52.308;20.994;2022-12-07T08:54:39;19.30;;;14.37;;
17482;SDS011;8858;52.308;20.994;2022-12-07T08:57:08;22.97;;;14.10;;
17482;SDS011;8858;52.308;20.994;2022-12-07T08:59:37;24.83;;;15.03;;
17482;SDS011;8858;52.308;20.994;2022-12-07T09:02:06;26.20;;;15.77;;
17482;SDS011;8858;52.308;20.994;2022-12-07T09:04:35;24.87;;;13.97;;
17482;SDS011;8858;52.308;20.994;2022-12-07T09:07:06;21.60;;;12.87;;
17482;SDS011;8858;52.308;20.994;2022-12-07T09:09:36;24.53;;;13.83;;
17482;SDS011;8858;52.308;20.994;2022-12-07T09:12:04;23.57;;;14.83;;
17482;SDS011;8858;52.308;20.994;2022-12-07T09:14:34;29.73;;;14.97;;
17482;SDS011;8858;52.308;20.994;2022-12-07T09:17:05;25.47;;;14.77;;
17482;SDS011;8858;52.308;20.994;2022-12-07T09:19:34;23.20;;;14.23;;
17482;SDS011;8858;52.308;20.994;2022-12-07T09:22:03;25.20;;;14.63;;
17482;SDS011;8858;52.308;20.994;2022-12-07T09:24:32;24.10;;;15.10;;
17482;SDS011;8858;52.308;20.994;2022-12-07T09:27:02;24.57;;;14.87;;
17482;SDS011;8858;52.308;20.994;2022-12-07T09:29:31;28.47;;;15.37;;
17482;SDS011;8858;52.308;20.994;2022-12-07T09:32:01;30.37;;;17.73;;
17482;SDS011;8858;52.308;20.994;2022-12-07T09:34:37;29.57;;;15.30;;
17482;SDS011;8858;52.308;20.994;2022-12-07T09:37:08;24.53;;;12.73;;
17482;SDS011;8858;52.308;20.994;2022-12-07T09:39:37;20.37;;;13.07;;
17482;SDS011;8858;52.308;20.994;2022-12-07T09:42:23;23.30;;;14.10;;
17482;SDS011;8858;52.308;20.994;2022-12-07T09:44:56;22.17;;;13.00;;
17482;SDS011;8858;52.308;20.994;2022-12-07T09:47:29;26.57;;;13.93;;
17482;SDS011;8858;52.308;20.994;2022-12-07T09:50:03;25.13;;;13.07;;
17482;SDS011;8858;52.308;20.994;2022-12-07T09:52:40;24.77;;;13.27;;
17482;SDS011;8858;52.308;20.994;2022-12-07T09:55:12;20.00;;;12.17;;
17482;SDS011;8858;52.308;20.994;2022-12-07T09:57:45;26.07;;;13.60;;
17482;SDS011;8858;52.308;20.994;2022-12-07T10:00:19;23.90;;;13.07;;
17482;SDS011;8858;52.308;20.994;2022-12-07T10:02:53;25.17;;;12.37;;
17482;SDS011;8858;52.308;20.994;2022-12-07T10:05:26;24.20;;;12.47;;
17482;SDS011;8858;52.308;20.994;2022-12-07T10:07:58;25.13;;;12.27;;
17482;SDS011;8858;52.308;20.994;2022-12-07T10:10:30;17.83;;;10.53;;
17482;SDS011;8858;52.308;20.994;2022-12-07T10:13:08;18.87;;;10.53;;
17482;SDS011;8858;52.308;20.994;2022-12-07T10:15:42;21.23;;;11.20;;
17482;SDS011;8858;52.308;20.994;2022-12-07T10:18:20;22.87;;;11.40;;
17482;SDS011;8858;52.308;20.994;2022-12-07T10:21:00;25.17;;;10.90;;
17482;SDS011;8858;52.308;20.994;2022-12-07T10:23:58;17.53;;;10.20;;
17482;SDS011;8858;52.308;20.994;2022-12-07T10:26:32;19.87;;;11.07;;
17482;SDS011;8858;52.308;20.994;2022-12-07T10:29:04;30.70;;;17.73;;
17482;SDS011;8858;52.308;20.994;2022-12-07T10:31:42;16.50;;;9.00;;
17482;SDS011;8858;52.308;20.994;2022-12-07T10:34:20;20.70;;;10.63;;
17482;SDS011;8858;52.308;20.994;2022-12-07T10:37:06;20.87;;;11.63;;
17482;SDS011;8858;52.308;20.994;2022-12-07T10:39:47;21.77;;;13.27;;
17482;SDS011;8858;52.308;20.994;2022-12-07T10:42:17;36.50;;;16.60;;
17482;SDS011;8858;52.308;20.994;2022-12-07T10:44:49;22.03;;;11.27;;
17482;SDS011;8858;52.308;20.994;2022-12-07T10:47:20;22.80;;;11.63;;
17482;SDS011;8858;52.308;20.994;2022-12-07T10:52:56;22.10;;;12.53;;
17482;SDS011;8858;52.308;20.994;2022-12-07T10:55:34;20.33;;;11.83;;
17482;SDS011;8858;52.308;20.994;2022-12-07T10:58:20;16.77;;;10.90;;
17482;SDS011;8858;52.308;20.994;2022-12-07T11:01:13;22.47;;;13.80;;
17482;SDS011;8858;52.308;20.994;2022-12-07T11:03:51;29.17;;;16.83;;
17482;SDS011;8858;52.308;20.994;2022-12-07T11:06:30;20.70;;;14.37;;
17482;SDS011;8858;52.308;20.994;2022-12-07T11:09:21;20.60;;;13.57;;
17482;SDS011;8858;52.308;20.994;2022-12-07T11:12:22;18.13;;;13.40;;
17482;SDS011;8858;52.308;20.994;2022-12-07T11:15:04;15.80;;;11.53;;
17482;SDS011;8858;52.308;20.994;2022-12-07T11:17:45;19.63;;;12.20;;
17482;SDS011;8858;52.308;20.994;2022-12-07T11:20:28;16.00;;;10.73;;
17482;SDS011;8858;52.308;20.994;2022-12-07T11:23:11;15.47;;;11.57;;
17482;SDS011;8858;52.308;20.994;2022-12-07T11:25:53;16.77;;;11.20;;
17482;SDS011;8858;52.308;20.994;2022-12-07T11:28:30;15.57;;;12.33;;
17482;SDS011;8858;52.308;20.994;2022-12-07T11:31:17;15.67;;;12.17;;
17482;SDS011;8858;52.308;20.994;2022-12-07T11:33:57;16.73;;;12.37;;
17482;SDS011;8858;52.308;20.994;2022-12-07T11:36:34;19.13;;;13.93;;
17482;SDS011;8858;52.308;20.994;2022-12-07T11:39:10;25.07;;;12.60;;
17482;SDS011;8858;52.308;20.994;2022-12-07T11:41:51;18.23;;;12.50;;
17482;SDS011;8858;52.308;20.994;2022-12-07T11:44:27;18.57;;;12.43;;
17482;SDS011;8858;52.308;20.994;2022-12-07T11:47:01;21.30;;;13.13;;
17482;SDS011;8858;52.308;20.994;2022-12-07T11:49:42;15.90;;;12.83;;
17482;SDS011;8858;52.308;20.994;2022-12-07T11:52:18;24.23;;;13.03;;
17482;SDS011;8858;52.308;20.994;2022-12-07T11:54:51;17.10;;;12.03;;
17482;SDS011;8858;52.308;20.994;2022-12-07T11:57:22;17.23;;;12.33;;
17482;SDS011;8858;52.308;20.994;2022-12-07T11:59:57;18.17;;;12.60;;
17482;SDS011;8858;52.308;20.994;2022-12-07T12:02:32;19.90;;;13.53;;
17482;SDS011;8858;52.308;20.994;2022-12-07T12:05:07;27.67;;;13.83;;
17482;SDS011;8858;52.308;20.994;2022-12-07T12:07:43;18.50;;;13.53;;
17482;SDS011;8858;52.308;20.994;2022-12-07T12:10:37;18.27;;;14.07;;
17482;SDS011;8858;52.308;20.994;2022-12-07T12:13:27;14.80;;;12.03;;
17482;SDS011;8858;52.308;20.994;2022-12-07T12:16:44;16.10;;;12.90;;
17482;SDS011;8858;52.308;20.994;2022-12-07T12:19:25;14.80;;;12.47;;
17482;SDS011;8858;52.308;20.994;2022-12-07T12:22:04;18.57;;;13.83;;
17482;SDS011;8858;52.308;20.994;2022-12-07T12:24:43;15.90;;;12.30;;
17482;SDS011;8858;52.308;20.994;2022-12-07T12:27:17;16.90;;;12.67;;
17482;SDS011;8858;52.308;20.994;2022-12-07T12:29:52;15.13;;;11.63;;
17482;SDS011;8858;52.308;20.994;2022-12-07T12:32:30;18.50;;;13.57;;
17482;SDS011;8858;52.308;20.994;2022-12-07T12:35:26;14.23;;;12.73;;
17482;SDS011;8858;52.308;20.994;2022-12-07T12:40:57;17.70;;;12.80;;
17482;SDS011;8858;52.308;20.994;2022-12-07T12:43:39;13.07;;;11.63;;
17482;SDS011;8858;52.308;20.994;2022-12-07T12:52:50;14.50;;;12.37;;
17482;SDS011;8858;52.308;20.994;2022-12-07T13:01:47;13.87;;;11.80;;
17482;SDS011;8858;52.308;20.994;2022-12-07T13:04:24;13.67;;;10.93;;
17482;SDS011;8858;52.308;20.994;2022-12-07T13:07:01;13.60;;;11.30;;
17482;SDS011;8858;52.308;20.994;2022-12-07T13:09:31;13.33;;;10.87;;
17482;SDS011;8858;52.308;20.994;2022-12-07T13:12:05;11.27;;;9.90;;
17482;SDS011;8858;52.308;20.994;2022-12-07T13:14:43;11.40;;;10.20;;
17482;SDS011;8858;52.308;20.994;2022-12-07T13:20:40;11.23;;;10.03;;
17482;SDS011;8858;52.308;20.994;2022-12-07T13:23:13;11.40;;;9.90;;
17482;SDS011;8858;52.308;20.994;2022-12-07T13:25:51;10.63;;;9.53;;
17482;SDS011;8858;52.308;20.994;2022-12-07T13:28:27;9.73;;;8.73;;
17482;SDS011;8858;52.308;20.994;2022-12-07T13:31:09;9.80;;;8.80;;
17482;SDS011;8858;52.308;20.994;2022-12-07T13:33:51;10.30;;;9.10;;
17482;SDS011;8858;52.308;20.994;2022-12-07T13:36:21;12.00;;;9.87;;
17482;SDS011;8858;52.308;20.994;2022-12-07T13:38:52;9.70;;;8.70;;
17482;SDS011;8858;52.308;20.994;2022-12-07T13:41:25;10.87;;;9.47;;
17482;SDS011;8858;52.308;20.994;2022-12-07T13:44:00;10.83;;;9.73;;
17482;SDS011;8858;52.308;20.994;2022-12-07T13:46:35;10.50;;;9.37;;
17482;SDS011;8858;52.308;20.994;2022-12-07T13:49:16;11.13;;;10.03;;
17482;SDS011;8858;52.308;20.994;2022-12-07T13:51:48;11.00;;;9.60;;
17482;SDS011;8858;52.308;20.994;2022-12-07T13:54:17;11.47;;;9.73;;
17482;SDS011;8858;52.308;20.994;2022-12-07T13:56:49;10.77;;;9.67;;
17482;SDS011;8858;52.308;20.994;2022-12-07T13:59:19;11.00;;;9.90;;
17482;SDS011;8858;52.308;20.994;2022-12-07T14:01:52;12.20;;;10.63;;
17482;SDS011;8858;52.308;20.994;2022-12-07T14:04:29;13.80;;;10.60;;
17482;SDS011;8858;52.308;20.994;2022-12-07T14:09:54;12.00;;;10.70;;
17482;SDS011;8858;52.308;20.994;2022-12-07T14:12:24;13.23;;;11.30;;
17482;SDS011;8858;52.308;20.994;2022-12-07T14:14:54;13.67;;;12.17;;
17482;SDS011;8858;52.308;20.994;2022-12-07T14:17:26;14.30;;;12.20;;
17482;SDS011;8858;52.308;20.994;2022-12-07T14:19:56;12.80;;;11.50;;
17482;SDS011;8858;52.308;20.994;2022-12-07T14:22:30;13.63;;;12.23;;
17482;SDS011;8858;52.308;20.994;2022-12-07T14:25:01;13.47;;;12.03;;
17482;SDS011;8858;52.308;20.994;2022-12-07T14:27:48;13.90;;;12.40;;
17482;SDS011;8858;52.308;20.994;2022-12-07T14:30:20;14.33;;;12.83;;
17482;SDS011;8858;52.308;20.994;2022-12-07T14:32:51;14.27;;;12.87;;
17482;SDS011;8858;52.308;20.994;2022-12-07T14:35:21;14.73;;;13.23;;
17482;SDS011;8858;52.308;20.994;2022-12-07T14:37:52;16.27;;;11.93;;
17482;SDS011;8858;52.308;20.994;2022-12-07T14:40:25;11.57;;;10.37;;
17482;SDS011;8858;52.308;20.994;2022-12-07T14:43:00;10.63;;;9.53;;
17482;SDS011;8858;52.308;20.994;2022-12-07T14:45:31;10.80;;;9.60;;
17482;SDS011;8858;52.308;20.994;2022-12-07T14:48:00;10.57;;;9.43;;
17482;SDS011;8858;52.308;20.994;2022-12-07T14:50:51;10.67;;;9.57;;
17482;SDS011;8858;52.308;20.994;2022-12-07T14:53:41;11.60;;;9.83;;
17482;SDS011;8858;52.308;20.994;2022-12-07T14:56:20;11.00;;;9.90;;
17482;SDS011;8858;52.308;20.994;2022-12-07T14:58:49;11.53;;;10.33;;
17482;SDS011;8858;52.308;20.994;2022-12-07T15:01:18;11.87;;;10.57;;
17482;SDS011;8858;52.308;20.994;2022-12-07T15:03:48;14.03;;;11.13;;
17482;SDS011;8858;52.308;20.994;2022-12-07T15:06:17;14.97;;;11.67;;
17482;SDS011;8858;52.308;20.994;2022-12-07T15:08:46;15.67;;;13.67;;
17482;SDS011;8858;52.308;20.994;2022-12-07T15:11:15;17.27;;;13.67;;
17482;SDS011;8858;52.308;20.994;2022-12-07T15:13:47;17.73;;;15.47;;
17482;SDS011;8858;52.308;20.994;2022-12-07T15:16:34;18.00;;;15.13;;
17482;SDS011;8858;52.308;20.994;2022-12-07T15:19:24;19.00;;;16.57;;
17482;SDS011;8858;52.308;20.994;2022-12-07T15:21:55;19.93;;;15.67;;
17482;SDS011;8858;52.308;20.994;2022-12-07T15:24:26;18.80;;;16.30;;
17482;SDS011;8858;52.308;20.994;2022-12-07T15:26:54;23.00;;;17.03;;
17482;SDS011;8858;52.308;20.994;2022-12-07T15:29:22;20.87;;;17.30;;
17482;SDS011;8858;52.308;20.994;2022-12-07T15:31:51;20.00;;;17.53;;